sensor_id;sensor_type;location;lat;lon;timestamp;P1;durP1;ratioP1;P2;durP2;ratioP2
9508;SDS011;4792;50.088;8.122;2022-12-07T00:01:43;32.03;;;17.73;;
9508;SDS011;4792;50.088;8.122;2022-12-07T00:04:14;19.83;;;11.67;;
9508;SDS011;4792;50.088;8.122;2022-12-07T00:06:45;20.23;;;12.60;;
9508;SDS011;4792;50.088;8.122;2022-12-07T00:09:14;21.37;;;11.43;;
9508;SDS011;4792;50.088;8.122;2022-12-07T00:11:44;21.07;;;12.03;;
9508;SDS011;4792;50.088;8.122;2022-12-07T00:14:17;18.87;;;11.70;;
9508;SDS011;4792;50.088;8.122;2022-12-07T00:16:45;18.13;;;11.57;;
9508;SDS011;4792;50.088;8.122;2022-12-07T00:19:18;20.30;;;12.57;;
9508;SDS011;4792;50.088;8.122;2022-12-07T00:21:47;19.87;;;11.27;;
9508;SDS011;4792;50.088;8.122;2022-12-07T00:24:15;16.17;;;10.33;;
9508;SDS011;4792;50.088;8.122;2022-12-07T00:26:43;17.53;;;10.77;;
9508;SDS011;4792;50.088;8.122;2022-12-07T00:29:13;16.70;;;10.47;;
9508;SDS011;4792;50.088;8.122;2022-12-07T00:31:43;18.73;;;10.20;;
9508;SDS011;4792;50.088;8.122;2022-12-07T00:34:12;19.77;;;10.70;;
9508;SDS011;4792;50.088;8.122;2022-12-07T00:36:43;16.53;;;10.37;;
9508;SDS011;4792;50.088;8.122;2022-12-07T00:39:11;15.93;;;10.03;;
9508;SDS011;4792;50.088;8.122;2022-12-07T00:41:39;21.37;;;12.67;;
9508;SDS011;4792;50.088;8.122;2022-12-07T00:44:07;18.20;;;10.30;;
9508;SDS011;4792;50.088;8.122;2022-12-07T00:46:35;18.40;;;11.77;;
9508;SDS011;4792;50.088;8.122;2022-12-07T00:49:03;19.30;;;11.30;;
9508;SDS011;4792;50.088;8.122;2022-12-07T00:51:32;21.43;;;13.07;;
9508;SDS011;4792;50.088;8.122;2022-12-07T00:54:01;26.47;;;15.50;;
9508;SDS011;4792;50.088;8.122;2022-12-07T00:56:29;14.87;;;9.77;;
9508;SDS011;4792;50.088;8.122;2022-12-07T00:58:58;28.13;;;15.17;;
9508;SDS011;4792;50.088;8.122;2022-12-07T01:01:28;22.73;;;12.90;;
9508;SDS011;4792;50.088;8.122;2022-12-07T01:03:58;14.37;;;9.43;;
9508;SDS011;4792;50.088;8.122;2022-12-07T01:06:27;24.93;;;13.30;;
9508;SDS011;4792;50.088;8.122;2022-12-07T01:08:55;19.80;;;11.97;;
9508;SDS011;4792;50.088;8.122;2022-12-07T01:11:26;19.03;;;11.17;;
9508;SDS011;4792;50.088;8.122;2022-12-07T01:13:56;19.47;;;11.33;;
9508;SDS011;4792;50.088;8.122;2022-12-07T01:16:26;16.53;;;9.47;;
9508;SDS011;4792;50.088;8.122;2022-12-07T01:18:55;18.47;;;10.73;;
9508;SDS011;4792;50.088;8.122;2022-12-07T01:21:25;14.00;;;9.57;;
9508;SDS011;4792;50.088;8.122;2022-12-07T01:23:56;13.80;;;9.10;;
9508;SDS011;4792;50.088;8.122;2022-12-07T01:26:28;17.97;;;10.40;;
9508;SDS011;4792;50.088;8.122;2022-12-07T01:28:56;20.50;;;13.10;;
9508;SDS011;4792;50.088;8.122;2022-12-07T01:31:28;18.53;;;10.17;;
9508;SDS011;4792;50.088;8.122;2022-12-07T01:33:57;15.43;;;9.07;;
9508;SDS011;4792;50.088;8.122;2022-12-07T01:36:27;11.67;;;7.97;;
9508;SDS011;4792;50.088;8.122;2022-12-07T01:38:57;13.50;;;8.30;;
9508;SDS011;4792;50.088;8.122;2022-12-07T01:41:28;11.70;;;7.53;;
9508;SDS011;4792;50.088;8.122;2022-12-07T01:44:12;12.17;;;7.17;;
9508;SDS011;4792;50.088;8.122;2022-12-07T01:46:43;12.10;;;8.43;;
9508;SDS011;4792;50.088;8.122;2022-12-07T01:49:13;12.70;;;7.63;;
9508;SDS011;4792;50.088;8.122;2022-12-07T01:51:45;12.13;;;7.63;;
9508;SDS011;4792;50.088;8.122;2022-12-07T01:54:14;11.67;;;7.60;;
9508;SDS011;4792;50.088;8.122;2022-12-07T01:56:45;13.00;;;8.13;;
9508;SDS011;4792;50.088;8.122;2022-12-07T01:59:17;14.37;;;8.47;;
9508;SDS011;4792;50.088;8.122;2022-12-07T02:01:47;15.00;;;8.37;;
9508;SDS011;4792;50.088;8.122;2022-12-07T02:04:18;16.77;;;9.47;;
9508;SDS011;4792;50.088;8.122;2022-12-07T02:06:46;11.30;;;7.53;;
9508;SDS011;4792;50.088;8.122;2022-12-07T02:09:14;14.43;;;8.17;;
9508;SDS011;4792;50.088;8.122;2022-12-07T02:11:42;11.87;;;8.27;;
9508;SDS011;4792;50.088;8.122;2022-12-07T02:14:12;13.77;;;8.53;;
9508;SDS011;4792;50.088;8.122;2022-12-07T02:16:44;13.67;;;7.60;;
9508;SDS011;4792;50.088;8.122;2022-12-07T02:19:26;13.13;;;8.37;;
9508;SDS011;4792;50.088;8.122;2022-12-07T02:22:41;15.27;;;8.90;;
9508;SDS011;4792;50.088;8.122;2022-12-07T02:25:33;13.57;;;9.03;;
9508;SDS011;4792;50.088;8.122;2022-12-07T02:28:19;17.50;;;9.40;;
9508;SDS011;4792;50.088;8.122;2022-12-07T02:31:01;15.13;;;9.97;;
9508;SDS011;4792;50.088;8.122;2022-12-07T02:33:33;13.53;;;8.63;;
9508;SDS011;4792;50.088;8.122;2022-12-07T02:36:06;15.30;;;8.97;;
9508;SDS011;4792;50.088;8.122;2022-12-07T02:38:39;17.27;;;9.83;;
9508;SDS011;4792;50.088;8.122;2022-12-07T02:41:16;15.17;;;9.40;;
9508;SDS011;4792;50.088;8.122;2022-12-07T02:43:47;15.17;;;9.20;;
9508;SDS011;4792;50.088;8.122;2022-12-07T02:46:21;14.97;;;9.70;;
9508;SDS011;4792;50.088;8.122;2022-12-07T02:48:52;16.80;;;10.40;;
9508;SDS011;4792;50.088;8.122;2022-12-07T02:51:21;16.30;;;10.47;;
9508;SDS011;4792;50.088;8.122;2022-12-07T02:53:49;17.67;;;10.60;;
9508;SDS011;4792;50.088;8.122;2022-12-07T02:56:20;17.03;;;10.70;;
9508;SDS011;4792;50.088;8.122;2022-12-07T02:58:59;17.67;;;10.90;;
9508;SDS011;4792;50.088;8.122;2022-12-07T03:01:44;17.00;;;10.63;;
9508;SDS011;4792;50.088;8.122;2022-12-07T03:04:27;19.17;;;10.80;;
9508;SDS011;4792;50.088;8.122;2022-12-07T03:07:05;19.97;;;11.90;;
9508;SDS011;4792;50.088;8.122;2022-12-07T03:09:41;19.63;;;12.20;;
9508;SDS011;4792;50.088;8.122;2022-12-07T03:12:18;16.93;;;10.60;;
9508;SDS011;4792;50.088;8.122;2022-12-07T03:14:49;18.60;;;12.17;;
9508;SDS011;4792;50.088;8.122;2022-12-07T03:17:26;19.57;;;12.30;;
9508;SDS011;4792;50.088;8.122;2022-12-07T03:19:58;18.70;;;12.07;;
9508;SDS011;4792;50.088;8.122;2022-12-07T03:22:30;23.03;;;12.27;;
9508;SDS011;4792;50.088;8.122;2022-12-07T03:25:03;17.67;;;11.20;;
9508;SDS011;4792;50.088;8.122;2022-12-07T03:27:35;22.03;;;12.27;;
9508;SDS011;4792;50.088;8.122;2022-12-07T03:30:08;22.70;;;12.80;;
9508;SDS011;4792;50.088;8.122;2022-12-07T03:32:41;22.43;;;13.47;;
9508;SDS011;4792;50.088;8.122;2022-12-07T03:35:14;21.53;;;12.80;;
9508;SDS011;4792;50.088;8.122;2022-12-07T03:37:45;22.33;;;13.67;;
9508;SDS011;4792;50.088;8.122;2022-12-07T03:40:19;21.13;;;13.93;;
9508;SDS011;4792;50.088;8.122;2022-12-07T03:42:53;25.90;;;14.17;;
9508;SDS011;4792;50.088;8.122;2022-12-07T03:45:27;24.27;;;14.00;;
9508;SDS011;4792;50.088;8.122;2022-12-07T03:48:05;23.87;;;14.57;;
9508;SDS011;4792;50.088;8.122;2022-12-07T03:50:42;24.13;;;15.77;;
9508;SDS011;4792;50.088;8.122;2022-12-07T03:53:15;25.50;;;14.43;;
9508;SDS011;4792;50.088;8.122;2022-12-07T03:55:46;22.50;;;14.10;;
9508;SDS011;4792;50.088;8.122;2022-12-07T03:58:18;24.10;;;14.37;;
9508;SDS011;4792;50.088;8.122;2022-12-07T04:00:48;26.67;;;14.87;;
9508;SDS011;4792;50.088;8.122;2022-12-07T04:03:19;23.93;;;14.60;;
9508;SDS011;4792;50.088;8.122;2022-12-07T04:05:47;33.03;;;15.47;;
9508;SDS011;4792;50.088;8.122;2022-12-07T04:08:15;24.97;;;14.20;;
9508;SDS011;4792;50.088;8.122;2022-12-07T04:10:43;28.13;;;15.60;;
9508;SDS011;4792;50.088;8.122;2022-12-07T04:13:11;24.13;;;14.33;;
9508;SDS011;4792;50.088;8.122;2022-12-07T04:15:39;22.87;;;13.83;;
9508;SDS011;4792;50.088;8.122;2022-12-07T04:18:07;22.67;;;14.73;;
9508;SDS011;4792;50.088;8.122;2022-12-07T04:20:37;22.13;;;14.17;;
9508;SDS011;4792;50.088;8.122;2022-12-07T04:23:05;25.93;;;13.90;;
9508;SDS011;4792;50.088;8.122;2022-12-07T04:25:33;24.90;;;14.33;;
9508;SDS011;4792;50.088;8.122;2022-12-07T04:28:01;25.80;;;15.77;;
9508;SDS011;4792;50.088;8.122;2022-12-07T04:30:29;25.87;;;14.87;;
9508;SDS011;4792;50.088;8.122;2022-12-07T04:32:57;24.77;;;13.87;;
9508;SDS011;4792;50.088;8.122;2022-12-07T04:35:25;22.67;;;13.73;;
9508;SDS011;4792;50.088;8.122;2022-12-07T04:37:55;22.47;;;14.20;;
9508;SDS011;4792;50.088;8.122;2022-12-07T04:40:23;22.80;;;13.93;;
9508;SDS011;4792;50.088;8.122;2022-12-07T04:42:51;22.50;;;13.73;;
9508;SDS011;4792;50.088;8.122;2022-12-07T04:45:19;21.93;;;14.23;;
9508;SDS011;4792;50.088;8.122;2022-12-07T04:47:47;22.63;;;14.27;;
9508;SDS011;4792;50.088;8.122;2022-12-07T04:50:15;26.40;;;14.20;;
9508;SDS011;4792;50.088;8.122;2022-12-07T04:52:43;26.77;;;14.23;;
9508;SDS011;4792;50.088;8.122;2022-12-07T04:55:13;23.53;;;13.87;;
9508;SDS011;4792;50.088;8.122;2022-12-07T04:57:41;23.63;;;14.17;;
9508;SDS011;4792;50.088;8.122;2022-12-07T05:00:10;23.87;;;14.47;;
9508;SDS011;4792;50.088;8.122;2022-12-07T05:02:38;23.43;;;13.00;;
9508;SDS011;4792;50.088;8.122;2022-12-07T05:05:07;20.10;;;14.10;;
9508;SDS011;4792;50.088;8.122;2022-12-07T05:07:35;16.83;;;11.90;;
9508;SDS011;4792;50.088;8.122;2022-12-07T05:10:03;20.13;;;12.40;;
9508;SDS011;4792;50.088;8.122;2022-12-07T05:12:34;23.47;;;13.07;;
9508;SDS011;4792;50.088;8.122;2022-12-07T05:15:02;20.57;;;13.03;;
9508;SDS011;4792;50.088;8.122;2022-12-07T05:17:31;19.07;;;12.40;;
9508;SDS011;4792;50.088;8.122;2022-12-07T05:19:59;20.70;;;12.37;;
9508;SDS011;4792;50.088;8.122;2022-12-07T05:22:28;21.47;;;12.60;;
9508;SDS011;4792;50.088;8.122;2022-12-07T05:24:56;20.77;;;12.73;;
9508;SDS011;4792;50.088;8.122;2022-12-07T05:27:24;21.63;;;13.10;;
9508;SDS011;4792;50.088;8.122;2022-12-07T05:29:54;19.53;;;12.80;;
9508;SDS011;4792;50.088;8.122;2022-12-07T05:32:22;21.23;;;12.67;;
9508;SDS011;4792;50.088;8.122;2022-12-07T05:34:50;22.97;;;12.60;;
9508;SDS011;4792;50.088;8.122;2022-12-07T05:37:20;19.73;;;12.33;;
9508;SDS011;4792;50.088;8.122;2022-12-07T05:39:49;21.23;;;13.30;;
9508;SDS011;4792;50.088;8.122;2022-12-07T05:42:17;22.70;;;12.63;;
9508;SDS011;4792;50.088;8.122;2022-12-07T05:44:45;22.03;;;12.57;;
9508;SDS011;4792;50.088;8.122;2022-12-07T05:47:15;22.87;;;12.60;;
9508;SDS011;4792;50.088;8.122;2022-12-07T05:49:43;18.87;;;12.13;;
9508;SDS011;4792;50.088;8.122;2022-12-07T05:52:12;22.40;;;12.00;;
9508;SDS011;4792;50.088;8.122;2022-12-07T05:54:40;20.27;;;13.43;;
9508;SDS011;4792;50.088;8.122;2022-12-07T05:57:08;22.20;;;12.80;;
9508;SDS011;4792;50.088;8.122;2022-12-07T05:59:36;22.20;;;12.93;;
9508;SDS011;4792;50.088;8.122;2022-12-07T06:02:04;18.63;;;12.70;;
9508;SDS011;4792;50.088;8.122;2022-12-07T06:04:36;20.23;;;12.50;;
9508;SDS011;4792;50.088;8.122;2022-12-07T06:07:06;17.53;;;11.83;;
9508;SDS011;4792;50.088;8.122;2022-12-07T06:09:34;18.80;;;11.70;;
9508;SDS011;4792;50.088;8.122;2022-12-07T06:12:03;16.90;;;11.27;;
9508;SDS011;4792;50.088;8.122;2022-12-07T06:14:49;22.30;;;12.33;;
9508;SDS011;4792;50.088;8.122;2022-12-07T06:17:17;16.83;;;11.73;;
9508;SDS011;4792;50.088;8.122;2022-12-07T06:19:47;18.13;;;11.77;;
9508;SDS011;4792;50.088;8.122;2022-12-07T06:22:15;17.93;;;12.73;;
9508;SDS011;4792;50.088;8.122;2022-12-07T06:24:44;17.27;;;11.63;;
9508;SDS011;4792;50.088;8.122;2022-12-07T06:27:12;18.47;;;12.30;;
9508;SDS011;4792;50.088;8.122;2022-12-07T06:29:40;17.43;;;12.07;;
9508;SDS011;4792;50.088;8.122;2022-12-07T06:32:08;16.73;;;11.43;;
9508;SDS011;4792;50.088;8.122;2022-12-07T06:34:38;18.20;;;11.67;;
9508;SDS011;4792;50.088;8.122;2022-12-07T06:37:07;18.83;;;12.20;;
9508;SDS011;4792;50.088;8.122;2022-12-07T06:39:35;19.47;;;11.80;;
9508;SDS011;4792;50.088;8.122;2022-12-07T06:42:04;17.37;;;10.77;;
9508;SDS011;4792;50.088;8.122;2022-12-07T06:44:32;19.20;;;12.63;;
9508;SDS011;4792;50.088;8.122;2022-12-07T06:47:00;17.63;;;12.10;;
9508;SDS011;4792;50.088;8.122;2022-12-07T06:49:49;20.70;;;12.07;;
9508;SDS011;4792;50.088;8.122;2022-12-07T06:52:18;19.30;;;12.30;;
9508;SDS011;4792;50.088;8.122;2022-12-07T06:54:46;20.97;;;12.47;;
9508;SDS011;4792;50.088;8.122;2022-12-07T06:57:14;17.23;;;11.57;;
9508;SDS011;4792;50.088;8.122;2022-12-07T06:59:43;17.87;;;12.10;;
9508;SDS011;4792;50.088;8.122;2022-12-07T07:02:11;16.83;;;11.67;;
9508;SDS011;4792;50.088;8.122;2022-12-07T07:04:39;17.37;;;11.67;;
9508;SDS011;4792;50.088;8.122;2022-12-07T07:07:07;15.97;;;10.50;;
9508;SDS011;4792;50.088;8.122;2022-12-07T07:09:36;16.63;;;11.07;;
9508;SDS011;4792;50.088;8.122;2022-12-07T07:12:05;19.53;;;12.43;;
9508;SDS011;4792;50.088;8.122;2022-12-07T07:14:33;22.73;;;11.40;;
9508;SDS011;4792;50.088;8.122;2022-12-07T07:17:01;17.67;;;11.67;;
9508;SDS011;4792;50.088;8.122;2022-12-07T07:19:29;18.40;;;11.53;;
9508;SDS011;4792;50.088;8.122;2022-12-07T07:21:57;17.57;;;11.43;;
9508;SDS011;4792;50.088;8.122;2022-12-07T07:24:25;17.30;;;11.63;;
9508;SDS011;4792;50.088;8.122;2022-12-07T07:26:55;18.57;;;12.43;;
9508;SDS011;4792;50.088;8.122;2022-12-07T07:29:23;30.07;;;16.73;;
9508;SDS011;4792;50.088;8.122;2022-12-07T07:31:51;16.17;;;11.13;;
9508;SDS011;4792;50.088;8.122;2022-12-07T07:34:19;19.03;;;9.87;;
9508;SDS011;4792;50.088;8.122;2022-12-07T07:36:47;15.73;;;10.13;;
9508;SDS011;4792;50.088;8.122;2022-12-07T07:39:15;15.77;;;9.80;;
9508;SDS011;4792;50.088;8.122;2022-12-07T07:41:43;16.17;;;12.13;;
9508;SDS011;4792;50.088;8.122;2022-12-07T07:44:13;17.13;;;11.30;;
9508;SDS011;4792;50.088;8.122;2022-12-07T07:46:41;16.37;;;9.70;;
9508;SDS011;4792;50.088;8.122;2022-12-07T07:49:10;19.77;;;12.33;;
9508;SDS011;4792;50.088;8.122;2022-12-07T07:51:38;31.23;;;20.30;;
9508;SDS011;4792;50.088;8.122;2022-12-07T07:54:06;13.10;;;9.13;;
9508;SDS011;4792;50.088;8.122;2022-12-07T07:56:34;15.73;;;9.93;;
9508;SDS011;4792;50.088;8.122;2022-12-07T07:59:02;12.30;;;9.07;;
9508;SDS011;4792;50.088;8.122;2022-12-07T08:01:32;11.67;;;8.57;;
9508;SDS011;4792;50.088;8.122;2022-12-07T08:04:00;13.10;;;8.53;;
9508;SDS011;4792;50.088;8.122;2022-12-07T08:06:28;12.43;;;8.90;;
9508;SDS011;4792;50.088;8.122;2022-12-07T08:08:57;13.83;;;8.60;;
9508;SDS011;4792;50.088;8.122;2022-12-07T08:11:26;15.53;;;9.33;;
9508;SDS011;4792;50.088;8.122;2022-12-07T08:13:54;16.30;;;10.77;;
9508;SDS011;4792;50.088;8.122;2022-12-07T08:16:22;12.27;;;8.83;;
9508;SDS011;4792;50.088;8.122;2022-12-07T08:18:52;14.73;;;8.67;;
9508;SDS011;4792;50.088;8.122;2022-12-07T08:21:20;12.53;;;8.10;;
9508;SDS011;4792;50.088;8.122;2022-12-07T08:23:48;12.73;;;8.00;;
9508;SDS011;4792;50.088;8.122;2022-12-07T08:26:16;11.10;;;8.60;;
9508;SDS011;4792;50.088;8.122;2022-12-07T08:28:44;11.43;;;7.57;;
9508;SDS011;4792;50.088;8.122;2022-12-07T08:31:13;11.93;;;8.50;;
9508;SDS011;4792;50.088;8.122;2022-12-07T08:33:44;11.03;;;7.83;;
9508;SDS011;4792;50.088;8.122;2022-12-07T08:36:13;12.60;;;8.57;;
9508;SDS011;4792;50.088;8.122;2022-12-07T08:38:42;13.73;;;8.73;;
9508;SDS011;4792;50.088;8.122;2022-12-07T08:41:30;13.83;;;8.50;;
9508;SDS011;4792;50.088;8.122;2022-12-07T08:43:59;14.00;;;9.43;;
9508;SDS011;4792;50.088;8.122;2022-12-07T08:46:28;13.77;;;8.80;;
9508;SDS011;4792;50.088;8.122;2022-12-07T08:49:03;12.30;;;7.97;;
9508;SDS011;4792;50.088;8.122;2022-12-07T08:51:37;10.70;;;7.57;;
9508;SDS011;4792;50.088;8.122;2022-12-07T08:54:08;14.30;;;8.83;;
9508;SDS011;4792;50.088;8.122;2022-12-07T08:56:39;13.23;;;8.60;;
9508;SDS011;4792;50.088;8.122;2022-12-07T08:59:08;13.07;;;8.33;;
9508;SDS011;4792;50.088;8.122;2022-12-07T09:01:37;12.20;;;7.97;;
9508;SDS011;4792;50.088;8.122;2022-12-07T09:04:05;14.17;;;9.17;;
9508;SDS011;4792;50.088;8.122;2022-12-07T09:06:33;13.13;;;9.00;;
9508;SDS011;4792;50.088;8.122;2022-12-07T09:09:03;15.33;;;9.43;;
9508;SDS011;4792;50.088;8.122;2022-12-07T09:11:32;14.00;;;8.60;;
9508;SDS011;4792;50.088;8.122;2022-12-07T09:14:00;13.60;;;8.30;;
9508;SDS011;4792;50.088;8.122;2022-12-07T09:16:28;18.40;;;11.53;;
9508;SDS011;4792;50.088;8.122;2022-12-07T09:18:56;95.20;;;37.80;;
9508;SDS011;4792;50.088;8.122;2022-12-07T09:21:24;17.10;;;8.40;;
9508;SDS011;4792;50.088;8.122;2022-12-07T09:23:52;29.83;;;15.30;;
9508;SDS011;4792;50.088;8.122;2022-12-07T09:26:22;51.77;;;24.57;;
9508;SDS011;4792;50.088;8.122;2022-12-07T09:28:50;32.80;;;18.00;;
9508;SDS011;4792;50.088;8.122;2022-12-07T09:31:18;26.73;;;16.80;;
9508;SDS011;4792;50.088;8.122;2022-12-07T09:33:52;20.80;;;13.53;;
9508;SDS011;4792;50.088;8.122;2022-12-07T09:36:21;19.93;;;12.53;;
9508;SDS011;4792;50.088;8.122;2022-12-07T09:38:49;12.23;;;7.80;;
9508;SDS011;4792;50.088;8.122;2022-12-07T09:41:17;30.80;;;18.40;;
9508;SDS011;4792;50.088;8.122;2022-12-07T09:43:48;11.10;;;7.80;;
9508;SDS011;4792;50.088;8.122;2022-12-07T09:46:17;12.43;;;9.17;;
9508;SDS011;4792;50.088;8.122;2022-12-07T09:48:47;12.37;;;7.00;;
9508;SDS011;4792;50.088;8.122;2022-12-07T09:51:18;11.20;;;7.03;;
9508;SDS011;4792;50.088;8.122;2022-12-07T09:53:50;13.13;;;6.73;;
9508;SDS011;4792;50.088;8.122;2022-12-07T09:56:19;12.87;;;6.80;;
9508;SDS011;4792;50.088;8.122;2022-12-07T09:58:49;12.03;;;6.97;;
9508;SDS011;4792;50.088;8.122;2022-12-07T10:01:21;11.03;;;6.60;;
9508;SDS011;4792;50.088;8.122;2022-12-07T10:03:50;7.33;;;5.50;;
9508;SDS011;4792;50.088;8.122;2022-12-07T10:06:20;10.20;;;5.93;;
9508;SDS011;4792;50.088;8.122;2022-12-07T10:08:48;9.37;;;5.80;;
9508;SDS011;4792;50.088;8.122;2022-12-07T10:11:17;10.03;;;6.87;;
9508;SDS011;4792;50.088;8.122;2022-12-07T10:13:46;9.40;;;5.50;;
9508;SDS011;4792;50.088;8.122;2022-12-07T10:16:34;8.70;;;5.80;;
9508;SDS011;4792;50.088;8.122;2022-12-07T10:19:18;9.10;;;5.30;;
9508;SDS011;4792;50.088;8.122;2022-12-07T10:22:01;10.77;;;4.83;;
9508;SDS011;4792;50.088;8.122;2022-12-07T10:24:31;9.23;;;4.60;;
9508;SDS011;4792;50.088;8.122;2022-12-07T10:26:59;7.13;;;4.03;;
9508;SDS011;4792;50.088;8.122;2022-12-07T10:29:28;9.00;;;4.63;;
9508;SDS011;4792;50.088;8.122;2022-12-07T10:31:59;7.70;;;3.90;;
9508;SDS011;4792;50.088;8.122;2022-12-07T10:34:30;5.77;;;3.80;;
9508;SDS011;4792;50.088;8.122;2022-12-07T10:37:07;9.77;;;4.00;;
9508;SDS011;4792;50.088;8.122;2022-12-07T10:39:43;7.83;;;4.27;;
9508;SDS011;4792;50.088;8.122;2022-12-07T10:42:17;11.37;;;3.80;;
9508;SDS011;4792;50.088;8.122;2022-12-07T10:44:47;7.43;;;4.03;;
9508;SDS011;4792;50.088;8.122;2022-12-07T10:47:25;7.60;;;4.00;;
9508;SDS011;4792;50.088;8.122;2022-12-07T10:56:07;12.40;;;4.70;;
9508;SDS011;4792;50.088;8.122;2022-12-07T10:59:03;10.07;;;4.20;;
9508;SDS011;4792;50.088;8.122;2022-12-07T11:01:43;14.47;;;3.80;;
9508;SDS011;4792;50.088;8.122;2022-12-07T11:04:21;7.30;;;3.90;;
9508;SDS011;4792;50.088;8.122;2022-12-07T11:07:00;7.07;;;3.37;;
9508;SDS011;4792;50.088;8.122;2022-12-07T11:09:46;5.90;;;3.60;;
9508;SDS011;4792;50.088;8.122;2022-12-07T11:12:38;7.83;;;3.77;;
9508;SDS011;4792;50.088;8.122;2022-12-07T11:15:22;5.87;;;3.70;;
9508;SDS011;4792;50.088;8.122;2022-12-07T11:17:56;9.03;;;3.83;;
9508;SDS011;4792;50.088;8.122;2022-12-07T11:20:34;6.60;;;3.73;;
9508;SDS011;4792;50.088;8.122;2022-12-07T11:23:12;10.03;;;4.23;;
9508;SDS011;4792;50.088;8.122;2022-12-07T11:25:48;8.87;;;3.70;;
9508;SDS011;4792;50.088;8.122;2022-12-07T11:28:25;7.83;;;3.43;;
9508;SDS011;4792;50.088;8.122;2022-12-07T11:31:05;6.73;;;3.47;;
9508;SDS011;4792;50.088;8.122;2022-12-07T11:33:41;13.13;;;3.70;;
9508;SDS011;4792;50.088;8.122;2022-12-07T11:36:21;5.07;;;2.93;;
9508;SDS011;4792;50.088;8.122;2022-12-07T11:39:00;7.63;;;3.43;;
9508;SDS011;4792;50.088;8.122;2022-12-07T11:41:32;6.73;;;3.47;;
9508;SDS011;4792;50.088;8.122;2022-12-07T11:44:05;4.43;;;3.07;;
9508;SDS011;4792;50.088;8.122;2022-12-07T11:46:40;4.07;;;2.93;;
9508;SDS011;4792;50.088;8.122;2022-12-07T11:49:14;7.27;;;3.20;;
9508;SDS011;4792;50.088;8.122;2022-12-07T11:51:51;7.93;;;3.77;;
9508;SDS011;4792;50.088;8.122;2022-12-07T11:54:23;5.27;;;3.37;;
9508;SDS011;4792;50.088;8.122;2022-12-07T11:56:56;5.40;;;3.40;;
9508;SDS011;4792;50.088;8.122;2022-12-07T11:59:31;7.13;;;3.37;;
9508;SDS011;4792;50.088;8.122;2022-12-07T12:02:10;7.30;;;3.67;;
9508;SDS011;4792;50.088;8.122;2022-12-07T12:04:45;10.40;;;3.87;;
9508;SDS011;4792;50.088;8.122;2022-12-07T12:07:21;5.53;;;3.23;;
9508;SDS011;4792;50.088;8.122;2022-12-07T12:10:14;5.57;;;3.03;;
9508;SDS011;4792;50.088;8.122;2022-12-07T12:13:02;7.20;;;3.50;;
9508;SDS011;4792;50.088;8.122;2022-12-07T12:16:21;5.00;;;2.87;;
9508;SDS011;4792;50.088;8.122;2022-12-07T12:19:13;4.30;;;2.60;;
9508;SDS011;4792;50.088;8.122;2022-12-07T12:21:53;6.97;;;3.37;;
9508;SDS011;4792;50.088;8.122;2022-12-07T12:24:26;3.87;;;2.83;;
9508;SDS011;4792;50.088;8.122;2022-12-07T12:27:03;4.60;;;2.73;;
9508;SDS011;4792;50.088;8.122;2022-12-07T12:29:34;4.90;;;2.60;;
9508;SDS011;4792;50.088;8.122;2022-12-07T12:32:04;4.47;;;2.67;;
9508;SDS011;4792;50.088;8.122;2022-12-07T12:34:57;4.97;;;2.70;;
9508;SDS011;4792;50.088;8.122;2022-12-07T12:37:41;4.93;;;2.50;;
9508;SDS011;4792;50.088;8.122;2022-12-07T12:55:19;5.13;;;2.63;;
9508;SDS011;4792;50.088;8.122;2022-12-07T13:07:12;5.27;;;2.67;;
9508;SDS011;4792;50.088;8.122;2022-12-07T13:10:01;5.67;;;2.60;;
9508;SDS011;4792;50.088;8.122;2022-12-07T13:12:30;6.17;;;2.70;;
9508;SDS011;4792;50.088;8.122;2022-12-07T13:15:00;4.50;;;2.70;;
9508;SDS011;4792;50.088;8.122;2022-12-07T13:23:31;5.93;;;2.60;;
9508;SDS011;4792;50.088;8.122;2022-12-07T13:26:16;3.57;;;2.40;;
9508;SDS011;4792;50.088;8.122;2022-12-07T13:28:46;7.33;;;2.10;;
9508;SDS011;4792;50.088;8.122;2022-12-07T13:31:23;4.57;;;2.10;;
9508;SDS011;4792;50.088;8.122;2022-12-07T13:33:59;6.70;;;2.33;;
9508;SDS011;4792;50.088;8.122;2022-12-07T13:36:30;5.80;;;2.13;;
9508;SDS011;4792;50.088;8.122;2022-12-07T13:39:10;5.20;;;2.53;;
9508;SDS011;4792;50.088;8.122;2022-12-07T13:41:49;3.97;;;2.17;;
9508;SDS011;4792;50.088;8.122;2022-12-07T13:44:19;3.10;;;1.90;;
9508;SDS011;4792;50.088;8.122;2022-12-07T13:46:51;5.00;;;1.97;;
9508;SDS011;4792;50.088;8.122;2022-12-07T13:49:24;4.53;;;2.23;;
9508;SDS011;4792;50.088;8.122;2022-12-07T13:51:54;6.43;;;2.40;;
9508;SDS011;4792;50.088;8.122;2022-12-07T13:54:43;4.07;;;1.87;;
9508;SDS011;4792;50.088;8.122;2022-12-07T13:57:12;2.73;;;1.77;;
9508;SDS011;4792;50.088;8.122;2022-12-07T13:59:41;3.73;;;2.13;;
9508;SDS011;4792;50.088;8.122;2022-12-07T14:02:18;3.97;;;1.70;;
9508;SDS011;4792;50.088;8.122;2022-12-07T14:04:48;4.50;;;2.20;;
9508;SDS011;4792;50.088;8.122;2022-12-07T14:07:19;4.37;;;2.10;;
9508;SDS011;4792;50.088;8.122;2022-12-07T14:09:56;4.53;;;2.27;;
9508;SDS011;4792;50.088;8.122;2022-12-07T14:12:27;4.93;;;1.97;;
9508;SDS011;4792;50.088;8.122;2022-12-07T14:14:56;4.60;;;2.00;;
9508;SDS011;4792;50.088;8.122;2022-12-07T14:17:28;4.80;;;2.47;;
9508;SDS011;4792;50.088;8.122;2022-12-07T14:19:56;5.13;;;2.23;;
9508;SDS011;4792;50.088;8.122;2022-12-07T14:22:30;5.63;;;1.83;;
9508;SDS011;4792;50.088;8.122;2022-12-07T14:27:53;5.63;;;1.70;;
9508;SDS011;4792;50.088;8.122;2022-12-07T14:30:24;6.70;;;1.90;;
9508;SDS011;4792;50.088;8.122;2022-12-07T14:32:57;4.07;;;1.87;;
9508;SDS011;4792;50.088;8.122;2022-12-07T14:35:27;3.00;;;2.10;;
9508;SDS011;4792;50.088;8.122;2022-12-07T14:37:56;3.37;;;1.70;;
9508;SDS011;4792;50.088;8.122;2022-12-07T14:40:25;5.57;;;2.23;;
9508;SDS011;4792;50.088;8.122;2022-12-07T14:42:56;5.93;;;2.20;;
9508;SDS011;4792;50.088;8.122;2022-12-07T14:45:28;5.77;;;2.00;;
9508;SDS011;4792;50.088;8.122;2022-12-07T14:47:58;13.87;;;8.33;;
9508;SDS011;4792;50.088;8.122;2022-12-07T14:50:48;6.03;;;3.03;;
9508;SDS011;4792;50.088;8.122;2022-12-07T14:53:40;3.87;;;2.10;;
9508;SDS011;4792;50.088;8.122;2022-12-07T14:56:18;4.50;;;2.13;;
9508;SDS011;4792;50.088;8.122;2022-12-07T14:58:46;5.20;;;1.73;;
9508;SDS011;4792;50.088;8.122;2022-12-07T15:01:14;5.03;;;2.07;;
9508;SDS011;4792;50.088;8.122;2022-12-07T15:03:44;4.20;;;1.77;;
9508;SDS011;4792;50.088;8.122;2022-12-07T15:06:13;7.50;;;1.73;;
9508;SDS011;4792;50.088;8.122;2022-12-07T15:08:43;3.30;;;1.80;;
9508;SDS011;4792;50.088;8.122;2022-12-07T15:11:12;3.33;;;1.90;;
9508;SDS011;4792;50.088;8.122;2022-12-07T15:13:41;4.43;;;1.90;;
9508;SDS011;4792;50.088;8.122;2022-12-07T15:16:27;5.27;;;1.60;;
9508;SDS011;4792;50.088;8.122;2022-12-07T15:19:17;4.60;;;1.70;;
9508;SDS011;4792;50.088;8.122;2022-12-07T15:21:54;6.73;;;1.73;;
9508;SDS011;4792;50.088;8.122;2022-12-07T15:24:23;6.03;;;2.00;;
9508;SDS011;4792;50.088;8.122;2022-12-07T15:26:51;3.40;;;2.00;;
9508;SDS011;4792;50.088;8.122;2022-12-07T15:29:19;4.27;;;1.93;;
9508;SDS011;4792;50.088;8.122;2022-12-07T15:31:49;8.53;;;3.03;;
9508;SDS011;4792;50.088;8.122;2022-12-07T15:34:24;5.13;;;2.27;;
9508;SDS011;4792;50.088;8.122;2022-12-07T15:37:03;11.13;;;4.47;;
9508;SDS011;4792;50.088;8.122;2022-12-07T15:39:31;5.00;;;2.37;;
9508;SDS011;4792;50.088;8.122;2022-12-07T15:41:59;5.27;;;2.60;;
9508;SDS011;4792;50.088;8.122;2022-12-07T15:44:28;5.13;;;2.87;;
9508;SDS011;4792;50.088;8.122;2022-12-07T15:47:13;9.37;;;3.23;;
9508;SDS011;4792;50.088;8.122;2022-12-07T15:49:43;8.07;;;2.70;;
9508;SDS011;4792;50.088;8.122;2022-12-07T15:52:11;10.43;;;2.93;;
9508;SDS011;4792;50.088;8.122;2022-12-07T15:54:39;6.83;;;2.70;;
9508;SDS011;4792;50.088;8.122;2022-12-07T15:57:08;6.27;;;2.40;;
9508;SDS011;4792;50.088;8.122;2022-12-07T15:59:36;3.13;;;2.37;;
9508;SDS011;4792;50.088;8.122;2022-12-07T16:02:04;3.20;;;2.20;;
9508;SDS011;4792;50.088;8.122;2022-12-07T16:04:32;3.27;;;2.07;;
9508;SDS011;4792;50.088;8.122;2022-12-07T16:07:02;9.53;;;3.23;;
9508;SDS011;4792;50.088;8.122;2022-12-07T16:09:30;10.50;;;2.73;;